Terminal Aerodrome Forecast
Issued by NWS

Home | Current Version | Previous Version | Text Only | Print | Product List | Glossary On
Versions: 1 2 3 4 5 6 7 8 9 10 11 12 13 14 15 16 17 18 19 20 21 22 23 24 25 26 27 28 29 30 31 32 33 34 35 36
000
FTUS42 KGSP 152300 RRA
TAFHKY
TAF
KHKY 152341Z 1600/1624 20003KT P6SM OVC020
      TEMPO 1600/1602 6SM -SHRA BR OVC015
     FM160700 24003KT 4SM BR BKN008
     FM160800 00000KT 3SM BR BKN005
     FM161400 00000KT P6SM SCT018
     FM161800 26003KT P6SM SCT050 PROB30 1618/1622 4SM TSRA
      BKN040CB=

USA.gov is the U.S. government's official web portal to all federal, state and local government web resources and services.